createdAt,value
2022-08-27T00:01:38.162Z,11.10
2022-08-27T00:04:05.057Z,19.77
2022-08-27T00:06:32.039Z,9.40
2022-08-27T00:09:00.001Z,11.70
2022-08-27T00:11:26.959Z,14.40
2022-08-27T00:13:54.030Z,10.30
2022-08-27T00:16:21.042Z,10.40
2022-08-27T00:18:48.588Z,13.23
2022-08-27T00:21:17.321Z,13.03
2022-08-27T00:23:44.528Z,16.67
2022-08-27T00:26:12.152Z,12.90
2022-08-27T00:28:40.042Z,14.77
2022-08-27T00:31:07.342Z,13.30
2022-08-27T00:33:34.982Z,12.83
2022-08-27T00:36:05.196Z,11.10
2022-08-27T00:38:32.299Z,11.30
2022-08-27T00:41:01.132Z,15.90
2022-08-27T00:43:32.614Z,12.53
2022-08-27T00:46:14.586Z,12.60
2022-08-27T00:48:41.566Z,15.27
2022-08-27T00:51:08.583Z,10.93
2022-08-27T00:53:36.392Z,9.80
2022-08-27T00:56:13.319Z,9.53
2022-08-27T00:58:45.372Z,11.83
2022-08-27T01:01:17.746Z,14.90
2022-08-27T01:03:48.201Z,16.47
2022-08-27T01:06:17.285Z,10.20
2022-08-27T01:08:59.654Z,15.67
2022-08-27T01:11:26.641Z,10.57
2022-08-27T01:14:00.049Z,14.13
2022-08-27T01:16:35.853Z,10.00
2022-08-27T01:19:08.721Z,10.13
2022-08-27T01:22:11.128Z,11.57
2022-08-27T01:24:50.713Z,13.10
2022-08-27T01:27:21.858Z,12.13
2022-08-27T01:29:49.181Z,11.37
2022-08-27T01:32:24.142Z,11.73
2022-08-27T01:34:51.543Z,9.07
2022-08-27T01:37:23.956Z,13.27
2022-08-27T01:39:52.542Z,7.80
2022-08-27T01:42:23.720Z,10.13
2022-08-27T01:45:05.637Z,8.23
2022-08-27T01:47:33.985Z,7.37
2022-08-27T01:50:03.985Z,9.67
2022-08-27T01:52:31.445Z,7.47
2022-08-27T01:54:59.054Z,10.97
2022-08-27T01:57:26.451Z,7.20
2022-08-27T01:59:56.893Z,13.50
2022-08-27T02:02:23.996Z,9.23
2022-08-27T02:04:51.684Z,9.10
2022-08-27T02:07:18.998Z,10.30
2022-08-27T02:09:45.949Z,11.10
2022-08-27T02:12:12.836Z,7.17
2022-08-27T02:14:39.754Z,5.57
2022-08-27T02:17:06.640Z,9.30
2022-08-27T02:19:33.580Z,9.40
2022-08-27T02:22:00.716Z,9.80
2022-08-27T02:24:29.016Z,7.37
2022-08-27T02:26:57.125Z,7.40
2022-08-27T02:29:25.678Z,8.60
2022-08-27T02:31:52.714Z,8.20
2022-08-27T02:34:19.725Z,9.70
2022-08-27T02:36:47.503Z,8.70
2022-08-27T02:39:14.389Z,8.33
2022-08-27T02:41:41.297Z,8.43
2022-08-27T02:44:10.280Z,13.83
2022-08-27T02:46:39.510Z,9.70
2022-08-27T02:49:06.492Z,8.97
2022-08-27T02:51:33.693Z,9.00
2022-08-27T02:54:02.422Z,9.10
2022-08-27T02:56:30.308Z,12.03
2022-08-27T02:58:57.760Z,11.53
2022-08-27T03:01:24.775Z,11.40
2022-08-27T03:03:52.489Z,8.10
2022-08-27T03:06:19.469Z,9.70
2022-08-27T03:08:52.661Z,9.33
2022-08-27T03:11:23.005Z,12.40
2022-08-27T03:13:50.765Z,8.07
2022-08-27T03:16:17.778Z,11.73
2022-08-27T03:18:45.323Z,9.80
2022-08-27T03:21:21.336Z,9.70
2022-08-27T03:23:51.405Z,8.30
2022-08-27T03:26:19.777Z,8.37
2022-08-27T03:28:47.814Z,7.80
2022-08-27T03:31:27.058Z,8.07
2022-08-27T03:34:07.383Z,9.70
2022-08-27T03:36:34.248Z,9.00
2022-08-27T03:39:01.118Z,7.10
2022-08-27T03:41:54.230Z,9.90
2022-08-27T03:44:21.306Z,12.57
2022-08-27T03:46:50.272Z,11.47
2022-08-27T03:49:20.323Z,10.30
2022-08-27T03:51:51.375Z,10.70
2022-08-27T03:54:18.749Z,9.30
2022-08-27T03:56:45.583Z,12.87
2022-08-27T03:59:12.627Z,9.87
2022-08-27T04:01:39.522Z,9.27
2022-08-27T04:04:06.794Z,8.80
2022-08-27T04:06:35.398Z,11.53
2022-08-27T04:09:04.002Z,10.97
2022-08-27T04:11:34.378Z,13.77
2022-08-27T04:14:06.929Z,11.70
2022-08-27T04:16:48.045Z,11.20
2022-08-27T04:19:17.763Z,15.20
2022-08-27T04:21:44.614Z,15.07
2022-08-27T04:24:12.093Z,13.60
2022-08-27T04:26:42.530Z,18.53
2022-08-27T04:29:09.565Z,13.73
2022-08-27T04:31:36.433Z,22.37
2022-08-27T04:34:04.968Z,16.50
2022-08-27T04:36:31.808Z,15.97
2022-08-27T04:38:58.727Z,17.43
2022-08-27T04:41:27.482Z,11.83
2022-08-27T04:43:57.656Z,14.60
2022-08-27T04:46:28.921Z,14.70
2022-08-27T04:48:58.460Z,15.83
2022-08-27T04:51:26.948Z,15.40
2022-08-27T04:53:54.201Z,19.90
2022-08-27T04:56:23.680Z,15.13
2022-08-27T04:58:53.357Z,15.33
2022-08-27T05:01:27.397Z,19.80
2022-08-27T05:03:55.507Z,12.93
2022-08-27T05:06:23.182Z,12.77
2022-08-27T05:08:52.365Z,13.80
2022-08-27T05:11:21.509Z,16.63
2022-08-27T05:13:48.556Z,16.50
2022-08-27T05:16:21.984Z,13.17
2022-08-27T05:18:51.605Z,13.53
2022-08-27T05:21:30.986Z,10.93
2022-08-27T05:24:02.043Z,14.90
2022-08-27T05:26:30.696Z,16.00
2022-08-27T05:29:00.476Z,15.40
2022-08-27T05:31:28.387Z,14.53
2022-08-27T05:33:57.001Z,21.13
2022-08-27T05:36:31.514Z,15.80
2022-08-27T05:39:01.210Z,17.77
2022-08-27T05:41:34.101Z,22.13
2022-08-27T05:44:30.247Z,14.00
2022-08-27T05:46:56.199Z,17.97
2022-08-27T05:49:23.131Z,14.83
2022-08-27T05:51:50.068Z,17.73
2022-08-27T05:54:21.162Z,17.10
2022-08-27T05:56:49.753Z,16.07
2022-08-27T05:59:35.816Z,13.93
2022-08-27T06:02:05.920Z,17.83
2022-08-27T06:04:32.910Z,17.07
2022-08-27T06:06:59.735Z,19.33
2022-08-27T06:09:29.297Z,17.27
2022-08-27T06:11:58.562Z,14.60
2022-08-27T06:14:26.384Z,17.17
2022-08-27T06:16:53.287Z,16.47
2022-08-27T06:19:20.232Z,15.90
2022-08-27T06:22:01.245Z,14.60
2022-08-27T06:24:36.400Z,15.83
2022-08-27T06:27:03.390Z,20.60
2022-08-27T06:29:30.261Z,15.30
2022-08-27T06:31:57.119Z,17.23
2022-08-27T06:34:24.081Z,19.67
2022-08-27T06:36:50.955Z,15.63
2022-08-27T06:39:17.858Z,16.20
2022-08-27T06:41:45.489Z,16.63
2022-08-27T06:44:13.963Z,15.93
2022-08-27T06:46:42.784Z,18.03
2022-08-27T06:49:10.587Z,19.93
2022-08-27T06:51:40.165Z,14.03
2022-08-27T06:54:11.892Z,16.10
2022-08-27T06:56:40.147Z,14.10
2022-08-27T06:59:11.737Z,16.90
2022-08-27T07:01:42.475Z,18.43
2022-08-27T07:04:16.625Z,15.03
2022-08-27T07:06:44.036Z,16.80
2022-08-27T07:09:11.150Z,17.83
2022-08-27T07:11:38.785Z,18.50
2022-08-27T07:14:07.116Z,17.47
2022-08-27T07:16:34.414Z,17.53
2022-08-27T07:19:05.059Z,17.93
2022-08-27T07:21:34.177Z,18.40
2022-08-27T07:24:05.073Z,14.77
2022-08-27T07:26:39.288Z,17.60
2022-08-27T07:29:09.206Z,13.13
2022-08-27T07:31:36.142Z,18.23
2022-08-27T07:34:04.636Z,16.57
2022-08-27T07:36:32.649Z,13.37
2022-08-27T07:39:01.159Z,16.73
2022-08-27T07:41:53.233Z,17.20
2022-08-27T07:44:28.031Z,14.30
2022-08-27T07:46:58.707Z,15.03
2022-08-27T07:49:28.585Z,14.50
2022-08-27T07:51:55.612Z,15.00
2022-08-27T07:54:23.114Z,15.77
2022-08-27T07:56:55.123Z,14.50
2022-08-27T07:59:24.329Z,12.33
2022-08-27T08:01:52.410Z,12.67
2022-08-27T08:04:20.635Z,15.17
2022-08-27T08:06:48.963Z,12.60
2022-08-27T08:09:16.030Z,12.83
2022-08-27T08:11:42.958Z,9.93
2022-08-27T08:14:09.951Z,12.57
2022-08-27T08:16:36.856Z,11.30
2022-08-27T08:19:04.014Z,13.80
2022-08-27T08:21:30.934Z,11.40
2022-08-27T08:23:58.152Z,11.07
2022-08-27T08:26:25.065Z,10.90
2022-08-27T08:28:52.087Z,10.57
2022-08-27T08:31:19.105Z,14.80
2022-08-27T08:33:47.989Z,10.97
2022-08-27T08:36:17.176Z,10.23
2022-08-27T08:38:47.227Z,10.00
2022-08-27T08:41:49.198Z,12.83
2022-08-27T08:44:36.554Z,11.60
2022-08-27T08:47:12.370Z,8.80
2022-08-27T08:50:22.859Z,8.17
2022-08-27T08:53:29.725Z,10.80
2022-08-27T08:56:02.685Z,10.00
2022-08-27T08:58:51.953Z,13.07
2022-08-27T09:01:21.750Z,9.47
2022-08-27T09:04:04.677Z,9.60
2022-08-27T09:07:28.211Z,8.97
2022-08-27T09:10:04.144Z,10.03
2022-08-27T09:12:33.195Z,10.17
2022-08-27T09:15:05.906Z,12.20
2022-08-27T09:17:36.635Z,11.43
2022-08-27T09:20:05.494Z,11.30
2022-08-27T09:23:04.858Z,10.30
2022-08-27T09:25:36.725Z,8.50
2022-08-27T09:28:33.978Z,8.93
2022-08-27T09:31:09.565Z,8.20
2022-08-27T09:33:54.798Z,10.00
2022-08-27T09:36:25.028Z,14.33
2022-08-27T09:39:01.764Z,9.60
2022-08-27T09:41:35.615Z,8.87
2022-08-27T09:44:11.791Z,11.17
2022-08-27T09:46:39.349Z,10.73
2022-08-27T09:49:15.514Z,15.50
2022-08-27T09:51:46.710Z,12.67
2022-08-27T09:54:41.265Z,8.87
2022-08-27T09:57:10.846Z,8.30
2022-08-27T09:59:49.805Z,7.63
2022-08-27T10:02:21.312Z,9.40
2022-08-27T10:04:52.607Z,13.43
2022-08-27T10:07:31.691Z,13.10
2022-08-27T10:10:13.433Z,10.63
2022-08-27T10:13:17.474Z,12.87
2022-08-27T10:16:18.113Z,9.37
2022-08-27T10:19:04.999Z,13.13
2022-08-27T10:22:05.683Z,8.10
2022-08-27T10:24:55.505Z,9.57
2022-08-27T10:27:46.888Z,8.77
2022-08-27T10:30:44.044Z,11.60
2022-08-27T10:33:23.708Z,11.67
2022-08-27T10:36:23.322Z,12.60
2022-08-27T10:39:05.987Z,9.53
2022-08-27T10:41:44.780Z,9.00
2022-08-27T10:44:37.692Z,12.87
2022-08-27T10:47:15.860Z,5.77
2022-08-27T10:50:01.930Z,9.70
2022-08-27T10:52:40.960Z,12.43
2022-08-27T10:55:32.447Z,12.43
2022-08-27T10:59:08.704Z,9.80
2022-08-27T11:02:11.274Z,8.60
2022-08-27T11:04:48.878Z,8.47
2022-08-27T11:07:30.790Z,10.17
2022-08-27T11:10:05.011Z,9.63
2022-08-27T11:12:38.828Z,10.17
2022-08-27T11:15:14.487Z,8.97
2022-08-27T11:17:45.695Z,8.20
2022-08-27T11:20:26.194Z,12.40
2022-08-27T11:22:58.048Z,8.53
2022-08-27T11:25:52.964Z,6.80
2022-08-27T11:28:29.824Z,6.77
2022-08-27T11:31:38.321Z,8.13
2022-08-27T11:34:52.490Z,12.37
2022-08-27T11:37:28.987Z,8.27
2022-08-27T11:40:18.804Z,8.97
2022-08-27T11:43:03.118Z,8.03
2022-08-27T11:45:38.594Z,10.63
2022-08-27T11:48:29.475Z,9.80
2022-08-27T11:51:04.973Z,10.10
2022-08-27T11:53:42.795Z,6.50
2022-08-27T11:56:40.378Z,6.60
2022-08-27T11:59:28.061Z,7.10
2022-08-27T12:01:58.968Z,8.63
2022-08-27T12:04:31.846Z,8.40
2022-08-27T12:07:13.959Z,6.10
2022-08-27T12:10:08.963Z,7.60
2022-08-27T12:13:07.375Z,7.27
2022-08-27T12:15:57.332Z,6.17
2022-08-27T12:18:49.676Z,8.23
2022-08-27T12:21:45.136Z,5.50
2022-08-27T12:24:49.429Z,5.90
2022-08-27T12:27:22.018Z,8.07
2022-08-27T12:29:55.665Z,8.70
2022-08-27T12:32:41.535Z,8.70
2022-08-27T12:35:10.988Z,6.83
2022-08-27T12:37:57.776Z,7.50
2022-08-27T12:41:03.729Z,7.00
2022-08-27T12:43:34.914Z,9.63
2022-08-27T12:46:16.202Z,7.30
2022-08-27T12:48:50.651Z,5.70
2022-08-27T12:51:31.216Z,8.03
2022-08-27T12:54:35.416Z,6.57
2022-08-27T12:57:32.475Z,5.53
2022-08-27T13:00:18.678Z,5.00
2022-08-27T13:02:51.133Z,9.07
2022-08-27T13:05:21.560Z,7.53
2022-08-27T13:07:51.361Z,12.23
2022-08-27T13:10:29.220Z,6.23
2022-08-27T13:13:10.367Z,6.83
2022-08-27T13:15:48.334Z,7.17
2022-08-27T13:18:17.037Z,5.63
2022-08-27T13:20:46.980Z,14.60
2022-08-27T13:23:23.845Z,7.03
2022-08-27T13:26:10.215Z,12.93
2022-08-27T13:28:40.840Z,7.87
2022-08-27T13:31:10.215Z,7.10
2022-08-27T13:33:40.272Z,10.20
2022-08-27T13:36:09.564Z,7.43
2022-08-27T13:38:49.292Z,5.53
2022-08-27T13:41:33.216Z,9.23
2022-08-27T13:44:13.052Z,8.10
2022-08-27T13:46:49.096Z,7.33
2022-08-27T13:49:24.688Z,7.73
2022-08-27T13:52:09.151Z,11.53
2022-08-27T13:54:36.418Z,8.90
2022-08-27T13:57:09.833Z,7.00
2022-08-27T13:59:43.030Z,9.30
2022-08-27T14:02:10.316Z,7.47
2022-08-27T14:04:49.058Z,6.83
2022-08-27T14:07:18.628Z,7.53
2022-08-27T14:10:02.389Z,10.80
2022-08-27T14:12:40.646Z,6.53
2022-08-27T14:15:41.529Z,8.40
2022-08-27T14:18:54.955Z,6.53
2022-08-27T14:21:18.818Z,10.50
2022-08-27T14:23:45.868Z,7.57
2022-08-27T14:26:14.738Z,6.80
2022-08-27T14:28:42.539Z,7.03
2022-08-27T14:31:09.546Z,8.07
2022-08-27T14:33:36.530Z,7.10
2022-08-27T14:36:03.887Z,6.70
2022-08-27T14:38:32.435Z,6.97
2022-08-27T14:41:00.205Z,4.30
2022-08-27T14:43:27.281Z,6.57
2022-08-27T14:45:55.158Z,8.17
2022-08-27T14:48:28.839Z,6.40
2022-08-27T14:50:57.769Z,7.50
2022-08-27T14:53:26.344Z,5.90
2022-08-27T14:55:54.553Z,10.10
2022-08-27T14:58:21.988Z,6.63
2022-08-27T15:00:49.298Z,6.23
2022-08-27T15:03:16.240Z,6.10
2022-08-27T15:05:43.151Z,6.23
2022-08-27T15:08:13.242Z,7.40
2022-08-27T15:10:40.410Z,6.47
2022-08-27T15:13:09.431Z,5.87
2022-08-27T15:15:36.353Z,5.57
2022-08-27T15:18:03.596Z,6.40
2022-08-27T15:20:30.701Z,6.90
2022-08-27T15:22:58.695Z,6.63
2022-08-27T15:25:25.982Z,7.17
2022-08-27T15:27:54.307Z,6.73
2022-08-27T15:30:26.705Z,7.17
2022-08-27T15:32:54.593Z,8.63
2022-08-27T15:35:26.700Z,7.10
2022-08-27T15:37:56.195Z,7.83
2022-08-27T15:40:25.499Z,6.93
2022-08-27T15:42:58.423Z,8.70
2022-08-27T15:45:27.554Z,7.33
2022-08-27T15:47:56.336Z,9.50
2022-08-27T15:50:24.526Z,6.47
2022-08-27T15:52:56.187Z,9.70
2022-08-27T15:55:28.479Z,7.70
2022-08-27T15:57:55.507Z,7.03
2022-08-27T16:00:24.277Z,15.63
2022-08-27T16:02:52.737Z,9.30
2022-08-27T16:05:21.950Z,7.07
2022-08-27T16:07:49.416Z,8.47
2022-08-27T16:10:16.622Z,8.80
2022-08-27T16:12:44.465Z,8.97
2022-08-27T16:15:12.151Z,6.83
2022-08-27T16:17:39.312Z,12.33
2022-08-27T16:20:08.912Z,6.90
2022-08-27T16:22:36.074Z,7.43
2022-08-27T16:25:05.735Z,7.30
2022-08-27T16:27:33.260Z,5.23
2022-08-27T16:30:00.296Z,10.53
2022-08-27T16:32:28.845Z,9.53
2022-08-27T16:34:56.253Z,12.63
2022-08-27T16:37:24.978Z,9.13
2022-08-27T16:39:51.931Z,8.57
2022-08-27T16:42:19.034Z,7.13
2022-08-27T16:44:45.922Z,7.80
2022-08-27T16:47:13.085Z,7.40
2022-08-27T16:49:58.569Z,7.50
2022-08-27T16:52:25.691Z,7.13
2022-08-27T16:54:52.831Z,11.43
2022-08-27T16:57:19.841Z,8.87
2022-08-27T16:59:46.736Z,7.77
2022-08-27T17:02:30.081Z,7.30
2022-08-27T17:05:12.242Z,8.03
2022-08-27T17:07:48.192Z,11.73
2022-08-27T17:10:20.120Z,6.40
2022-08-27T17:12:48.231Z,9.17
2022-08-27T17:15:18.319Z,8.50
2022-08-27T17:17:46.162Z,8.30
2022-08-27T17:20:14.953Z,7.63
2022-08-27T17:22:42.287Z,2.63
2022-08-27T17:25:10.301Z,10.13
2022-08-27T17:27:37.296Z,7.57
2022-08-27T17:30:05.730Z,9.50
2022-08-27T17:32:37.633Z,7.40
2022-08-27T17:35:07.297Z,7.50
2022-08-27T17:37:34.793Z,7.70
2022-08-27T17:40:02.035Z,7.17
2022-08-27T17:42:29.596Z,6.90
2022-08-27T17:44:56.985Z,7.17
2022-08-27T17:47:24.891Z,6.23
2022-08-27T17:49:52.676Z,6.47
2022-08-27T17:52:20.459Z,6.20
2022-08-27T17:54:52.004Z,9.10
2022-08-27T17:57:23.329Z,5.97
2022-08-27T17:59:51.127Z,8.83
2022-08-27T18:02:39.818Z,7.97
2022-08-27T18:05:13.137Z,7.50
2022-08-27T18:07:42.290Z,16.23
2022-08-27T18:10:13.473Z,7.07
2022-08-27T18:12:42.065Z,6.30
2022-08-27T18:15:28.899Z,6.97
2022-08-27T18:17:57.249Z,7.83
2022-08-27T18:20:28.357Z,10.10
2022-08-27T18:22:55.808Z,7.37
2022-08-27T18:25:26.730Z,9.70
2022-08-27T18:27:58.712Z,8.17
2022-08-27T18:30:26.511Z,7.57
2022-08-27T18:32:54.036Z,8.30
2022-08-27T18:35:29.390Z,8.20
2022-08-27T18:37:56.405Z,10.73
2022-08-27T18:40:32.155Z,7.80
2022-08-27T18:42:59.208Z,7.90
2022-08-27T18:45:28.787Z,7.17
2022-08-27T18:47:59.204Z,7.17
2022-08-27T18:50:27.416Z,7.37
2022-08-27T18:52:56.413Z,7.77
2022-08-27T18:55:27.522Z,7.17
2022-08-27T18:57:54.479Z,7.50
2022-08-27T19:00:21.852Z,8.60
2022-08-27T19:02:52.702Z,8.07
2022-08-27T19:05:25.305Z,7.27
2022-08-27T19:07:54.516Z,6.43
2022-08-27T19:10:21.666Z,7.43
2022-08-27T19:12:48.899Z,6.60
2022-08-27T19:15:16.103Z,7.40
2022-08-27T19:17:47.625Z,6.33
2022-08-27T19:20:17.311Z,6.77
2022-08-27T19:22:45.210Z,7.00
2022-08-27T19:25:13.265Z,5.43
2022-08-27T19:27:40.489Z,6.10
2022-08-27T19:30:08.500Z,6.30
2022-08-27T19:32:35.465Z,7.17
2022-08-27T19:35:02.361Z,6.00
2022-08-27T19:37:31.088Z,5.43
2022-08-27T19:39:58.405Z,5.87
2022-08-27T19:42:25.278Z,6.93
2022-08-27T19:44:52.310Z,6.47
2022-08-27T19:47:25.598Z,6.23
2022-08-27T19:49:53.814Z,7.67
2022-08-27T19:52:21.065Z,7.87
2022-08-27T19:55:10.256Z,6.47
2022-08-27T19:57:35.960Z,6.30
2022-08-27T20:00:05.529Z,7.17
2022-08-27T20:02:32.381Z,8.70
2022-08-27T20:05:16.911Z,7.53
2022-08-27T20:07:44.477Z,7.17
2022-08-27T20:10:11.358Z,7.10
2022-08-27T20:12:38.350Z,6.30
2022-08-27T20:15:07.211Z,7.60
2022-08-27T20:17:35.315Z,5.50
2022-08-27T20:20:02.404Z,9.13
2022-08-27T20:22:29.296Z,5.77
2022-08-27T20:24:56.158Z,6.37
2022-08-27T20:27:23.210Z,5.60
2022-08-27T20:29:50.095Z,6.10
2022-08-27T20:32:17.035Z,8.13
2022-08-27T20:34:44.328Z,5.93
2022-08-27T20:37:11.621Z,5.53
2022-08-27T20:39:38.749Z,4.80
2022-08-27T20:42:06.092Z,5.00
2022-08-27T20:44:33.009Z,5.07
2022-08-27T20:47:02.503Z,5.03
2022-08-27T20:49:29.837Z,5.57
2022-08-27T20:52:03.033Z,5.63
2022-08-27T20:54:33.668Z,6.23
2022-08-27T20:57:01.101Z,10.10
2022-08-27T20:59:46.872Z,4.73
2022-08-27T21:02:16.188Z,4.63
2022-08-27T21:04:46.489Z,4.10
2022-08-27T21:07:18.026Z,4.40
2022-08-27T21:09:56.380Z,5.00
2022-08-27T21:12:28.656Z,4.90
2022-08-27T21:14:56.745Z,4.83
2022-08-27T21:17:27.673Z,4.70
2022-08-27T21:19:55.787Z,4.37
2022-08-27T21:22:24.496Z,4.67
2022-08-27T21:24:52.152Z,4.37
2022-08-27T21:27:21.236Z,4.27
2022-08-27T21:29:48.636Z,5.10
2022-08-27T21:32:16.273Z,4.57
2022-08-27T21:34:43.320Z,4.30
2022-08-27T21:37:13.570Z,3.80
2022-08-27T21:39:42.783Z,4.73
2022-08-27T21:42:12.282Z,4.87
2022-08-27T21:44:39.795Z,4.70
2022-08-27T21:47:06.997Z,3.70
2022-08-27T21:49:34.532Z,5.03
2022-08-27T21:52:06.153Z,5.37
2022-08-27T21:54:37.495Z,4.50
2022-08-27T21:57:06.551Z,4.03
2022-08-27T21:59:40.662Z,4.10
2022-08-27T22:02:28.821Z,3.77
2022-08-27T22:04:55.396Z,6.70
2022-08-27T22:07:24.150Z,3.97
2022-08-27T22:09:51.013Z,4.03
2022-08-27T22:12:17.888Z,4.03
2022-08-27T22:14:44.749Z,4.87
2022-08-27T22:17:15.590Z,3.80
2022-08-27T22:19:42.934Z,6.17
2022-08-27T22:22:09.828Z,3.33
2022-08-27T22:24:36.796Z,3.87
2022-08-27T22:27:03.929Z,4.80
2022-08-27T22:29:30.821Z,3.80
2022-08-27T22:31:57.731Z,3.20
2022-08-27T22:34:24.582Z,3.63
2022-08-27T22:36:51.509Z,4.90
2022-08-27T22:39:18.503Z,6.40
2022-08-27T22:41:48.597Z,4.23
2022-08-27T22:44:16.104Z,4.00
2022-08-27T22:46:43.198Z,10.70
2022-08-27T22:49:10.141Z,4.53
2022-08-27T22:51:37.052Z,3.73
2022-08-27T22:54:04.071Z,4.70
2022-08-27T22:56:31.027Z,6.87
2022-08-27T22:58:57.906Z,3.50
2022-08-27T23:01:25.046Z,4.77
2022-08-27T23:03:53.841Z,4.43
2022-08-27T23:06:20.955Z,3.27
2022-08-27T23:08:48.181Z,6.10
2022-08-27T23:11:15.972Z,4.43
2022-08-27T23:13:42.851Z,3.93
2022-08-27T23:16:10.070Z,4.30
2022-08-27T23:18:38.848Z,4.80
2022-08-27T23:21:06.613Z,3.47
2022-08-27T23:23:34.709Z,5.10
2022-08-27T23:26:20.454Z,3.97
2022-08-27T23:28:47.694Z,3.83
2022-08-27T23:31:15.318Z,3.83
2022-08-27T23:33:42.814Z,3.40
2022-08-27T23:36:09.958Z,4.10
2022-08-27T23:38:37.387Z,6.33
2022-08-27T23:41:05.614Z,3.80
2022-08-27T23:43:32.436Z,4.40
2022-08-27T23:45:59.462Z,3.93
2022-08-27T23:48:26.727Z,4.20
2022-08-27T23:50:53.634Z,3.90
2022-08-27T23:53:20.634Z,4.03
2022-08-27T23:55:47.616Z,3.80
2022-08-27T23:58:14.871Z,4.13
